CheckWX is a tool to help pilots better visualize weather data.  It is not intended as a substitute for an official pre-flight weather briefing.

07:01:50 UTC

LFTW TAF
Nîmes-Arles-Camargue Airport
Nîmes/Garons, France
TAF LFTW 190200Z 1903/2003 11010KT CAVOK BECMG 1907/1909 17012KT BECMG 1919/1920 VRB05KT BECMG 1923/1924 BKN010

Jun-19@
03:00 UTC

Jun-19 @ 03:00 UTC

Jun-19@
07:00 UTC

Jun-19 @ 07:00 UTC

TAF LFTW 190200Z 1903/2003 11010KT CAVOK

Expired

Wind
  • 110° at 10 KTS
Conditions
No significant weather
Cloud Levels
  • No significant clouds

Jun-19@
07:00 UTC

Jun-19 @ 07:00 UTC

Jun-19@
19:00 UTC

Jun-19 @ 19:00 UTC

BECMG 1907/1909 17012KT

Becoming

Becoming Conditions expected by Wed, Jun 19, 2019 @ 09:00 UTC

Wind
  • 170° at 12 KTS
Conditions
No significant weather
Cloud Levels
  • No significant clouds

Jun-19@
19:00 UTC

Jun-19 @ 19:00 UTC

Jun-19@
23:00 UTC

Jun-19 @ 23:00 UTC

BECMG 1919/1920 VRB05KT

Becoming

Becoming Conditions expected by Wed, Jun 19, 2019 @ 20:00 UTC

Wind
  • Variable at 5 KTS
Conditions
No significant weather
Cloud Levels
  • No significant clouds

Jun-19@
23:00 UTC

Jun-19 @ 23:00 UTC

Jun-20@
03:00 UTC

Jun-20 @ 03:00 UTC

BECMG 1923/1924 BKN010

Becoming

Becoming Conditions expected by Thu, Jun 20, 2019 @ 00:00 UTC

Wind
  • Variable at 5 KTS
Conditions
No significant weather
Cloud Levels
  • Broken at 1,000' AGL